Time;durP1;ratioP1;P1;durP2;ratioP2;P2;SDS_P1;SDS_P2;PMS_P1;PMS_P2;Temp;Humidity;BMP_temperature;BMP_pressure;BME280_temperature;BME280_humidity;BME280_pressure;Samples;Min_cycle;Max_cycle;Signal;HPM_P1;HPM_P2
2023/07/05 00:00:52;;;;;;;0.70;0.40;;;;;;;23.92;100.00;95252.06;5093500;28;20433;-58
2023/07/05 00:03:21;;;;;;;0.90;0.80;;;;;;;23.91;100.00;95249.69;5093655;28;20790;-58
2023/07/05 00:05:50;;;;;;;3.90;0.40;;;;;;;23.84;100.00;95253.03;5093491;28;20518;-57
2023/07/05 00:08:18;;;;;;;1.60;1.03;;;;;;;23.35;100.00;95244.56;5093169;28;20471;-58
2023/07/05 00:10:47;;;;;;;0.70;0.60;;;;;;;23.41;100.00;95250.53;5093233;28;20436;-58
2023/07/05 00:13:15;;;;;;;0.73;0.73;;;;;;;23.18;100.00;95247.66;5093402;28;21012;-58
2023/07/05 00:15:48;;;;;;;0.93;0.93;;;;;;;23.13;100.00;95247.91;5093439;28;20447;-58
2023/07/05 00:18:17;;;;;;;1.17;1.07;;;;;;;23.19;100.00;95241.13;5093136;28;20437;-58
2023/07/05 00:20:46;;;;;;;0.80;0.70;;;;;;;23.03;100.00;95244.97;5093041;28;20475;-58
2023/07/05 00:23:15;;;;;;;1.20;1.03;;;;;;;22.92;100.00;95238.53;5088039;28;20440;-58
2023/07/05 00:25:43;;;;;;;1.17;1.07;;;;;;;22.52;100.00;95225.91;5093132;28;20949;-58
2023/07/05 00:28:11;;;;;;;1.73;1.50;;;;;;;22.75;100.00;95231.53;5093249;28;20498;-58
2023/07/05 00:30:43;;;;;;;0.67;0.67;;;;;;;22.64;100.00;95233.94;5093067;28;20441;-58
2023/07/05 00:33:11;;;;;;;2.20;2.10;;;;;;;22.66;100.00;95230.91;5093204;28;20437;-58
2023/07/05 00:35:49;;;;;;;8.07;1.13;;;;;;;22.94;100.00;95238.94;5092949;28;20489;-58
2023/07/05 00:38:17;;;;;;;0.60;0.60;;;;;;;23.27;100.00;95229.34;5093016;28;20433;-58
2023/07/05 00:40:47;;;;;;;0.70;0.70;;;;;;;23.49;100.00;95227.91;5066635;28;20493;-58
2023/07/05 00:43:19;;;;;;;0.70;0.60;;;;;;;23.73;100.00;95232.31;5092667;28;20483;-58
2023/07/05 00:45:53;;;;;;;2.87;0.73;;;;;;;23.60;100.00;95233.56;5091730;28;20525;-59
2023/07/05 00:48:26;;;;;;;0.50;0.40;;;;;;;23.45;100.00;95224.38;5092338;28;22135;-59
2023/07/05 00:50:59;;;;;;;0.60;0.50;;;;;;;22.77;100.00;95173.31;5092496;28;20500;-59
2023/07/05 00:53:28;;;;;;;0.70;0.60;;;;;;;22.88;100.00;95232.22;5092323;28;20484;-59
2023/07/05 00:56:02;;;;;;;2.23;1.27;;;;;;;22.75;100.00;95229.63;5092531;28;20494;-59
2023/07/05 00:58:31;;;;;;;1.53;1.43;;;;;;;22.67;100.00;95227.06;5092066;28;20478;-60
2023/07/05 01:00:59;;;;;;;0.80;0.77;;;;;;;22.84;100.00;95231.38;5092036;28;20448;-59
2023/07/05 01:03:29;;;;;;;1.20;1.20;;;;;;;22.82;100.00;95228.25;5066358;28;20432;-59
2023/07/05 01:06:01;;;;;;;0.90;0.80;;;;;;;23.12;100.00;95230.13;5092040;28;20469;-59
2023/07/05 01:08:29;;;;;;;1.80;1.07;;;;;;;22.65;100.00;95224.72;5092175;28;20441;-59
2023/07/05 01:11:07;;;;;;;2.37;2.17;;;;;;;22.22;100.00;95238.22;5092123;28;20433;-60
2023/07/05 01:13:45;;;;;;;2.07;1.97;;;;;;;22.04;100.00;95237.72;5092403;28;20531;-57
2023/07/05 01:16:25;;;;;;;1.23;1.13;;;;;;;22.15;100.00;95235.31;5092294;28;20424;-58
2023/07/05 01:19:16;;;;;;;0.70;0.57;;;;;;;22.22;100.00;95237.41;5092287;28;20468;-58
2023/07/05 01:21:52;;;;;;;0.93;0.80;;;;;;;22.61;100.00;95242.75;5069769;28;20945;-60
2023/07/05 01:24:44;;;;;;;0.83;0.80;;;;;;;23.00;100.00;95232.91;5092029;28;20447;-58
2023/07/05 01:27:46;;;;;;;1.47;1.37;;;;;;;23.26;100.00;95226.97;5091509;28;21004;-59
2023/07/05 01:30:58;;;;;;;1.63;0.93;;;;;;;22.62;100.00;95240.84;5091698;28;20436;-59
2023/07/05 01:33:33;;;;;;;1.03;0.57;;;;;;;23.01;100.00;95231.81;5076431;28;20441;-58
2023/07/05 01:36:02;;;;;;;2.80;0.67;;;;;;;23.19;100.00;95226.81;5065355;28;20853;-58
2023/07/05 01:38:30;;;;;;;0.70;0.60;;;;;;;23.25;100.00;95214.59;5091674;28;20490;-58
2023/07/05 01:41:04;;;;;;;0.53;0.47;;;;;;;23.15;100.00;95213.19;5091586;28;20521;-58
2023/07/05 01:43:35;;;;;;;0.50;0.30;;;;;;;23.05;100.00;95221.84;5091791;28;20498;-58
2023/07/05 01:46:17;;;;;;;0.73;0.50;;;;;;;23.21;100.00;95219.13;5091507;28;20506;-58
2023/07/05 01:49:03;;;;;;;2.50;0.60;;;;;;;23.39;100.00;95223.06;5091597;28;20971;-58
2023/07/05 01:51:35;;;;;;;0.97;0.97;;;;;;;23.46;100.00;95217.81;5092146;28;20432;-58
2023/07/05 01:54:13;;;;;;;1.37;0.57;;;;;;;23.40;100.00;95208.41;5091868;28;20429;-58
2023/07/05 01:56:52;;;;;;;0.90;0.83;;;;;;;23.38;100.00;95206.03;5091599;28;20452;-58
2023/07/05 01:59:25;;;;;;;0.80;0.60;;;;;;;23.23;100.00;95206.03;5091496;28;20460;-58
2023/07/05 02:01:58;;;;;;;1.30;0.70;;;;;;;23.27;100.00;95196.88;5091195;28;20452;-58
2023/07/05 02:04:32;;;;;;;0.50;0.40;;;;;;;23.40;100.00;95210.31;5091407;28;20437;-58
2023/07/05 02:07:00;;;;;;;1.23;0.70;;;;;;;23.27;100.00;95196.09;5091832;28;20468;-58
2023/07/05 02:09:29;;;;;;;0.80;0.80;;;;;;;23.38;100.00;95211.44;5091708;28;20807;-59
2023/07/05 02:11:57;;;;;;;0.60;0.50;;;;;;;23.34;100.00;95212.47;5091906;28;20444;-59
2023/07/05 02:14:25;;;;;;;0.50;0.40;;;;;;;23.43;100.00;95212.31;5091335;28;20437;-58
2023/07/05 02:16:54;;;;;;;0.97;0.97;;;;;;;23.46;100.00;95211.59;5091667;28;20523;-59
2023/07/05 02:19:22;;;;;;;0.50;0.40;;;;;;;23.29;100.00;95218.16;5091582;28;20937;-58
2023/07/05 02:21:52;;;;;;;0.50;0.40;;;;;;;23.05;100.00;95212.94;5091767;28;20526;-58
2023/07/05 02:24:20;;;;;;;0.60;0.30;;;;;;;23.29;100.00;95218.16;5091403;28;20528;-58
2023/07/05 02:26:49;;;;;;;0.70;0.50;;;;;;;23.15;100.00;95220.53;5091677;28;20522;-58
2023/07/05 02:29:17;;;;;;;0.50;0.50;;;;;;;23.15;100.00;95217.81;5091073;28;20441;-58
2023/07/05 02:31:45;;;;;;;0.90;0.90;;;;;;;22.85;100.00;95216.69;5091738;28;20475;-59
2023/07/05 02:34:14;;;;;;;6.43;1.10;;;;;;;22.97;100.00;95219.34;5091272;28;20789;-59
2023/07/05 02:36:42;;;;;;;0.67;0.67;;;;;;;23.17;100.00;95218.28;5091377;28;20937;-59
2023/07/05 02:39:12;;;;;;;0.50;0.40;;;;;;;22.99;100.00;95208.97;5091376;28;20519;-60
2023/07/05 02:41:40;;;;;;;0.60;0.50;;;;;;;22.95;100.00;95211.56;5093156;28;20512;-59
2023/07/05 02:44:09;;;;;;;0.70;0.70;;;;;;;22.77;100.00;95211.13;5095589;28;20515;-60
2023/07/05 02:46:37;;;;;;;0.40;0.27;;;;;;;22.75;100.00;95218.00;5095021;28;20505;-59
2023/07/05 02:49:05;;;;;;;1.07;0.50;;;;;;;22.63;100.00;95215.41;5095269;28;20429;-59
2023/07/05 02:51:34;;;;;;;1.80;1.40;;;;;;;22.31;100.00;95214.56;5094713;28;20444;-58
2023/07/05 02:54:02;;;;;;;2.40;1.57;;;;;;;22.20;100.00;95208.06;5094998;28;20441;-60
2023/07/05 02:56:32;;;;;;;0.83;0.83;;;;;;;22.59;100.00;95206.41;5094779;28;20443;-60
2023/07/05 02:59:00;;;;;;;0.97;0.70;;;;;;;22.92;100.00;95211.50;5094512;28;21012;-60
2023/07/05 03:01:29;;;;;;;0.73;0.70;;;;;;;22.86;100.00;95208.25;5094493;28;20436;-60
2023/07/05 03:03:57;;;;;;;0.67;0.63;;;;;;;23.00;100.00;95207.81;5095177;28;20452;-59
2023/07/05 03:06:25;;;;;;;0.40;0.30;;;;;;;23.08;100.00;95201.44;5094659;28;20982;-59
2023/07/05 03:08:54;;;;;;;2.03;0.80;;;;;;;23.20;100.00;95201.31;5094642;28;20559;-60
2023/07/05 03:11:22;;;;;;;0.90;0.90;;;;;;;23.24;100.00;95202.22;5093685;28;20490;-60
2023/07/05 03:13:52;;;;;;;1.20;1.17;;;;;;;23.23;100.00;95201.41;5094557;28;20951;-60
2023/07/05 03:16:20;;;;;;;0.50;0.40;;;;;;;22.97;100.00;95203.88;5094549;28;20424;-60
2023/07/05 03:18:48;;;;;;;0.50;0.40;;;;;;;23.04;100.00;95195.97;5094416;28;20802;-60
2023/07/05 03:21:17;;;;;;;0.73;0.73;;;;;;;23.16;100.00;95206.66;5093482;28;20440;-60
2023/07/05 03:23:45;;;;;;;0.50;0.50;;;;;;;23.21;100.00;95208.31;5094544;28;20432;-60
2023/07/05 03:26:14;;;;;;;0.50;0.40;;;;;;;23.20;100.00;95199.41;5094527;28;20944;-60
2023/07/05 03:28:43;;;;;;;1.30;1.20;;;;;;;23.22;100.00;95202.56;5094476;28;20469;-60
2023/07/05 03:31:15;;;;;;;1.07;0.93;;;;;;;23.24;100.00;95203.00;5094289;28;20490;-60
2023/07/05 03:33:44;;;;;;;0.70;0.60;;;;;;;23.31;100.00;95213.19;5094019;28;20437;-60
2023/07/05 03:36:14;;;;;;;0.43;0.30;;;;;;;23.11;100.00;95206.16;5094212;28;20941;-60
2023/07/05 03:38:43;;;;;;;0.70;0.50;;;;;;;22.57;100.00;95214.84;5093673;28;20441;-60
2023/07/05 03:41:14;;;;;;;1.10;1.00;;;;;;;22.52;100.00;95207.00;5093684;28;20440;-60
2023/07/05 03:43:44;;;;;;;1.53;0.50;;;;;;;22.30;100.00;95218.38;5094003;28;20441;-60
2023/07/05 03:46:15;;;;;;;0.73;0.73;;;;;;;22.62;100.00;95205.72;5093389;28;20444;-60
2023/07/05 03:48:46;;;;;;;0.73;0.73;;;;;;;22.48;100.00;95214.22;5093701;28;20479;-60
2023/07/05 03:51:16;;;;;;;0.83;0.83;;;;;;;22.47;100.00;95211.84;5093965;28;20429;-60
2023/07/05 03:53:49;;;;;;;3.00;0.93;;;;;;;22.85;100.00;95211.31;5093281;28;20433;-58
2023/07/05 03:56:17;;;;;;;0.93;0.80;;;;;;;22.62;100.00;95208.41;5093748;28;20441;-58
2023/07/05 03:58:46;;;;;;;2.53;1.63;;;;;;;22.24;100.00;95222.44;5093282;28;20529;-59
2023/07/05 04:01:19;;;;;;;0.90;0.90;;;;;;;22.26;100.00;95217.50;5093455;28;20821;-57
2023/07/05 04:03:49;;;;;;;1.03;1.03;;;;;;;22.70;100.00;95210.97;5093437;28;20445;-57
2023/07/05 04:06:19;;;;;;;0.80;0.80;;;;;;;22.51;100.00;95226.25;5093903;28;20439;-57
2023/07/05 04:08:47;;;;;;;0.67;0.50;;;;;;;22.48;100.00;95216.94;5093416;28;20502;-57
2023/07/05 04:11:16;;;;;;;1.20;1.00;;;;;;;22.54;100.00;95210.13;5093467;28;20478;-56
2023/07/05 04:13:45;;;;;;;0.97;0.80;;;;;;;22.57;100.00;95220.25;5093627;28;20935;-57
2023/07/05 04:16:17;;;;;;;0.50;0.40;;;;;;;22.89;100.00;95221.09;5093209;28;20437;-57
2023/07/05 04:18:50;;;;;;;0.80;0.60;;;;;;;23.25;100.00;95218.06;5085961;28;20436;-56
2023/07/05 04:21:19;;;;;;;0.50;0.40;;;;;;;23.12;100.00;95218.53;5087283;28;20492;-56
2023/07/05 04:23:47;;;;;;;0.80;0.80;;;;;;;23.60;100.00;95223.53;5086266;28;20807;-56
2023/07/05 04:26:19;;;;;;;0.70;0.60;;;;;;;23.77;100.00;95219.63;5093431;28;20436;-57
2023/07/05 04:28:48;;;;;;;1.67;1.57;;;;;;;23.73;100.00;95213.38;5093162;28;20469;-56
2023/07/05 04:31:23;;;;;;;0.83;0.83;;;;;;;23.55;100.00;95218.41;5093320;28;20437;-57
2023/07/05 04:33:52;;;;;;;3.17;0.87;;;;;;;23.67;100.00;95215.56;5093107;28;20479;-57
2023/07/05 04:36:20;;;;;;;0.80;0.70;;;;;;;23.87;100.00;95198.19;5087996;28;20507;-57
2023/07/05 04:38:55;;;;;;;0.60;0.50;;;;;;;23.94;100.00;95206.47;5090838;28;20494;-57
2023/07/05 04:41:23;;;;;;;0.40;0.30;;;;;;;24.19;100.00;95214.31;5092805;28;20447;-57
2023/07/05 04:43:52;;;;;;;0.60;0.60;;;;;;;23.86;100.00;95206.66;5093303;28;20438;-57
2023/07/05 04:46:22;;;;;;;1.60;1.50;;;;;;;23.95;100.00;95208.03;5092697;28;20816;-56
2023/07/05 04:48:50;;;;;;;2.20;0.53;;;;;;;23.91;100.00;95203.66;5092056;28;20476;-56
2023/07/05 04:51:19;;;;;;;2.40;2.20;;;;;;;23.69;100.00;95215.19;5093071;28;21002;-56
2023/07/05 04:53:47;;;;;;;0.50;0.40;;;;;;;23.87;100.00;95208.25;5066236;28;20440;-56
2023/07/05 04:56:16;;;;;;;1.13;0.70;;;;;;;23.95;100.00;95209.97;5092609;28;20445;-56
2023/07/05 04:58:45;;;;;;;5.07;0.93;;;;;;;23.98;100.00;95210.00;5092491;28;20810;-55
2023/07/05 05:01:13;;;;;;;1.50;0.40;;;;;;;24.14;100.00;95206.47;5092638;28;20441;-55
2023/07/05 05:03:43;;;;;;;0.50;0.50;;;;;;;24.49;100.00;95212.56;5091942;28;20442;-55
2023/07/05 05:06:12;;;;;;;0.60;0.57;;;;;;;24.37;100.00;95212.72;5091971;28;20445;-55
2023/07/05 05:08:40;;;;;;;0.83;0.83;;;;;;;24.55;100.00;95205.69;5091816;28;20480;-56
2023/07/05 05:11:08;;;;;;;0.83;0.60;;;;;;;24.70;100.00;95207.53;5092388;28;20497;-55
2023/07/05 05:13:37;;;;;;;1.33;0.80;;;;;;;24.54;100.00;95199.50;5092619;28;20464;-55
2023/07/05 05:16:06;;;;;;;1.23;1.13;;;;;;;24.77;100.00;95194.06;5092299;28;21184;-55
2023/07/05 05:18:37;;;;;;;1.60;1.50;;;;;;;24.76;100.00;95202.59;5092582;28;20498;-56
2023/07/05 05:21:07;;;;;;;0.67;0.60;;;;;;;25.04;100.00;95203.88;5091990;28;20517;-55
2023/07/05 05:23:36;;;;;;;0.60;0.50;;;;;;;25.29;100.00;95206.97;5092662;28;20945;-56
2023/07/05 05:26:05;;;;;;;0.70;0.50;;;;;;;25.31;100.00;95193.81;5091924;28;21014;-55
2023/07/05 05:28:33;;;;;;;3.43;0.90;;;;;;;25.45;100.00;95199.44;5092267;28;20971;-56
2023/07/05 05:31:04;;;;;;;0.83;0.83;;;;;;;25.08;100.00;95202.00;5092312;28;20429;-55
2023/07/05 05:33:32;;;;;;;1.07;0.50;;;;;;;24.82;100.00;95198.47;5092190;28;20933;-56
2023/07/05 05:36:01;;;;;;;6.43;1.27;;;;;;;25.25;100.00;95198.75;5065710;28;20444;-56
2023/07/05 05:38:31;;;;;;;1.23;1.23;;;;;;;25.42;100.00;95196.69;5091642;28;20780;-55
2023/07/05 05:41:04;;;;;;;1.43;1.20;;;;;;;25.83;100.00;95204.63;5091894;28;20498;-57
2023/07/05 05:43:32;;;;;;;3.90;0.90;;;;;;;25.41;100.00;95201.31;5092011;28;20437;-57
2023/07/05 05:46:01;;;;;;;1.23;1.23;;;;;;;25.85;100.00;95191.50;5092089;28;20436;-57
2023/07/05 05:48:29;;;;;;;0.50;0.50;;;;;;;26.07;100.00;95192.50;5091284;28;20503;-57
2023/07/05 05:50:58;;;;;;;1.20;1.07;;;;;;;26.19;100.00;95191.50;5092183;28;20519;-58
2023/07/05 05:53:26;;;;;;;1.00;0.97;;;;;;;26.25;100.00;95195.47;5091611;28;20994;-57
2023/07/05 05:55:57;;;;;;;1.67;1.57;;;;;;;25.86;98.03;95184.09;5092044;28;20436;-58
2023/07/05 05:58:26;;;;;;;0.70;0.70;;;;;;;26.05;100.00;95143.22;5091408;28;20479;-58
2023/07/05 06:00:54;;;;;;;1.93;0.90;;;;;;;26.32;98.16;95188.16;5090862;28;20440;-58
2023/07/05 06:03:23;;;;;;;3.43;1.23;;;;;;;26.35;95.83;95179.28;5089773;28;20447;-57
2023/07/05 06:05:51;;;;;;;0.70;0.70;;;;;;;26.59;89.46;95182.63;5091581;28;20436;-58
2023/07/05 06:08:20;;;;;;;1.40;1.30;;;;;;;26.96;86.77;95183.34;5091933;28;20566;-57
2023/07/05 06:10:57;;;;;;;1.10;0.57;;;;;;;26.95;88.79;95187.22;5091320;28;20444;-57
2023/07/05 06:13:28;;;;;;;1.90;1.10;;;;;;;26.66;86.47;95180.75;5091334;28;20436;-57
2023/07/05 06:15:57;;;;;;;1.67;1.10;;;;;;;26.70;86.23;95173.38;5094072;28;20439;-58
2023/07/05 06:18:40;;;;;;;0.73;0.73;;;;;;;26.73;87.00;95188.19;5095158;28;20523;-56
2023/07/05 06:21:11;;;;;;;1.50;1.40;;;;;;;27.04;88.08;95187.69;5094892;28;20466;-57
2023/07/05 06:23:39;;;;;;;3.10;1.73;;;;;;;27.18;88.30;95187.00;5094959;28;21033;-57
2023/07/05 06:26:10;;;;;;;1.00;0.80;;;;;;;27.27;82.71;95114.00;5094688;28;20441;-57
2023/07/05 06:28:38;;;;;;;2.83;1.93;;;;;;;27.65;81.31;95176.09;5094379;28;20948;-59
2023/07/05 06:31:08;;;;;;;1.33;1.23;;;;;;;27.77;79.72;95173.03;5094776;28;20471;-58
2023/07/05 06:33:36;;;;;;;0.90;0.73;;;;;;;28.23;78.68;95159.59;5095577;28;20439;-58
2023/07/05 06:36:06;;;;;;;2.07;1.20;;;;;;;28.44;74.47;95167.81;5095335;28;20435;-58
2023/07/05 06:38:35;;;;;;;0.90;0.70;;;;;;;28.97;72.16;95158.94;5095436;28;20444;-57
2023/07/05 06:41:04;;;;;;;0.60;0.50;;;;;;;28.88;72.03;95162.84;5095345;28;20439;-57
2023/07/05 06:43:34;;;;;;;0.63;0.63;;;;;;;29.01;72.41;95152.31;5095092;28;20459;-57
2023/07/05 06:46:02;;;;;;;0.57;0.50;;;;;;;28.70;74.22;95164.00;5095575;28;20436;-57
2023/07/05 06:48:30;;;;;;;3.10;0.93;;;;;;;29.27;70.54;95160.09;5095010;28;20443;-57
2023/07/05 06:50:59;;;;;;;1.27;1.20;;;;;;;28.88;72.37;95160.13;5095159;28;20432;-57
2023/07/05 06:53:28;;;;;;;1.60;1.50;;;;;;;28.52;70.28;95157.69;5095058;28;20479;-57
2023/07/05 06:56:15;;;;;;;2.57;1.47;;;;;;;29.33;70.43;95157.75;5095169;28;20440;-57
2023/07/05 06:58:45;;;;;;;0.83;0.70;;;;;;;29.48;68.62;95159.28;5068531;28;20471;-58
2023/07/05 07:01:14;;;;;;;0.70;0.53;;;;;;;29.40;68.72;95122.25;5094790;28;20432;-58
2023/07/05 07:03:43;;;;;;;1.50;1.40;;;;;;;29.35;66.36;95161.66;5094717;28;20952;-58
2023/07/05 07:06:11;;;;;;;1.50;1.40;;;;;;;29.29;67.15;95152.31;5094339;28;20477;-57
2023/07/05 07:08:40;;;;;;;0.50;0.50;;;;;;;30.26;66.39;95165.28;5094863;28;20443;-58
2023/07/05 07:11:10;;;;;;;0.70;0.40;;;;;;;30.70;64.40;95161.91;5094231;28;20471;-60
2023/07/05 07:13:39;;;;;;;0.57;0.30;;;;;;;31.18;63.02;95146.31;5094639;28;20489;-60
2023/07/05 07:16:11;;;;;;;0.60;0.50;;;;;;;30.87;64.07;95100.78;5094697;28;20436;-60
2023/07/05 07:18:39;;;;;;;0.77;0.63;;;;;;;31.16;60.91;95148.69;5094816;28;20437;-60
2023/07/05 07:21:09;;;;;;;0.60;0.60;;;;;;;30.92;62.06;95146.91;5094633;28;20468;-53
2023/07/05 07:23:38;;;;;;;1.03;1.03;;;;;;;30.10;62.37;95143.88;5094727;28;20928;-52
2023/07/05 07:26:09;;;;;;;1.00;0.77;;;;;;;30.84;63.29;95144.63;5088636;28;21002;-51
2023/07/05 07:28:38;;;;;;;1.00;0.90;;;;;;;31.25;62.36;95138.03;5086800;28;20436;-52
2023/07/05 07:31:12;;;;;;;3.03;0.80;;;;;;;31.23;58.90;95121.22;5093889;28;20512;-54
2023/07/05 07:33:41;;;;;;;0.90;0.90;;;;;;;31.37;58.82;95126.53;5094585;28;20439;-53
2023/07/05 07:36:11;;;;;;;1.10;1.10;;;;;;;30.93;59.58;95136.75;5094654;28;20906;-51
2023/07/05 07:38:40;;;;;;;0.87;0.87;;;;;;;31.13;59.88;95067.34;5092887;28;21088;-52
2023/07/05 07:41:13;;;;;;;1.07;0.50;;;;;;;31.85;60.19;95131.16;5094467;28;20439;-52
2023/07/05 07:43:42;;;;;;;3.13;1.83;;;;;;;32.05;58.45;95129.38;5093706;28;20490;-52
2023/07/05 07:46:14;;;;;;;0.70;0.70;;;;;;;32.00;61.17;95121.59;5094305;28;20431;-52
2023/07/05 07:48:46;;;;;;;2.17;0.70;;;;;;;31.92;61.01;95120.88;5093383;28;20556;-51
2023/07/05 07:51:15;;;;;;;0.80;0.77;;;;;;;32.21;59.73;95120.50;5094115;28;20471;-51
2023/07/05 07:54:04;;;;;;;0.70;0.70;;;;;;;32.28;56.89;95104.78;5094092;28;20458;-51
2023/07/05 07:56:32;;;;;;;2.20;1.20;;;;;;;32.79;59.79;95111.09;5093919;28;20522;-51
2023/07/05 07:59:04;;;;;;;1.60;1.50;;;;;;;32.60;61.10;95109.81;5093800;28;20525;-51
2023/07/05 08:01:37;;;;;;;1.03;1.00;;;;;;;31.93;56.38;95114.19;5093331;28;20436;-51
2023/07/05 08:04:08;;;;;;;0.73;0.63;;;;;;;32.27;55.51;95114.19;5093989;28;20454;-51
2023/07/05 08:06:39;;;;;;;3.07;1.93;;;;;;;32.22;55.03;95105.63;5093283;28;20475;-51
2023/07/05 08:09:09;;;;;;;1.43;1.43;;;;;;;32.28;53.76;95102.03;5094160;28;20435;-51
2023/07/05 08:11:38;;;;;;;1.53;1.43;;;;;;;33.12;55.00;95105.44;5093755;28;20566;-51
2023/07/05 08:14:07;;;;;;;1.17;0.97;;;;;;;32.69;54.94;95079.84;5093601;28;20466;-50
2023/07/05 08:16:38;;;;;;;0.50;0.50;;;;;;;33.46;53.00;95094.22;5067543;28;20467;-51
2023/07/05 08:19:06;;;;;;;0.50;0.43;;;;;;;34.05;54.25;95087.97;5093418;28;20830;-51
2023/07/05 08:21:36;;;;;;;0.80;0.80;;;;;;;34.12;52.06;95090.59;5093050;28;20871;-51
2023/07/05 08:24:05;;;;;;;0.93;0.93;;;;;;;34.09;49.18;95086.72;5092258;28;20543;-51
2023/07/05 08:26:53;;;;;;;2.57;2.40;;;;;;;33.06;49.12;95087.13;5093285;28;20944;-51
2023/07/05 08:29:21;;;;;;;0.80;0.80;;;;;;;33.41;49.72;95085.69;5093091;28;20440;-51
2023/07/05 08:31:51;;;;;;;0.70;0.70;;;;;;;34.10;49.49;95085.53;5093252;28;20479;-51
2023/07/05 08:34:20;;;;;;;0.80;0.57;;;;;;;34.28;49.07;95074.88;5092929;28;20432;-51
2023/07/05 08:36:48;;;;;;;0.80;0.80;;;;;;;34.37;47.43;95074.31;5092817;28;20447;-50
2023/07/05 08:39:17;;;;;;;0.73;0.73;;;;;;;33.65;47.87;95082.47;5092357;28;20432;-50
2023/07/05 08:42:27;;;;;;;0.90;0.80;;;;;;;34.72;47.43;95083.72;5092462;28;20440;-50
2023/07/05 08:45:03;;;;;;;0.53;0.53;;;;;;;34.76;45.92;95082.44;5077961;28;20448;-50
2023/07/05 08:47:47;;;;;;;0.60;0.60;;;;;;;34.47;44.59;95074.06;5093148;28;20428;-50
2023/07/05 08:50:23;;;;;;;1.43;0.60;;;;;;;35.02;45.58;95070.38;5092756;28;20475;-50
2023/07/05 08:53:05;;;;;;;0.50;0.50;;;;;;;35.26;46.92;95070.97;5092940;28;21016;-50
2023/07/05 08:55:48;;;;;;;0.57;0.50;;;;;;;35.48;45.14;95069.19;5092977;28;20435;-50
2023/07/05 08:58:23;;;;;;;2.03;1.20;;;;;;;34.10;48.69;95059.97;5092008;28;20471;-51
2023/07/05 09:00:59;;;;;;;0.90;0.90;;;;;;;34.39;46.67;95066.38;5093067;28;20492;-51
2023/07/05 09:03:30;;;;;;;1.77;0.50;;;;;;;34.76;45.39;95060.41;5092741;28;20194;-51
2023/07/05 09:06:18;;;;;;;0.60;0.60;;;;;;;35.57;44.66;95066.59;5092352;28;20488;-51
2023/07/05 09:09:01;;;;;;;0.77;0.77;;;;;;;34.33;43.67;95062.63;5092520;28;20650;-51
2023/07/05 09:11:40;;;;;;;0.90;0.90;;;;;;;35.36;44.75;95058.09;5091916;28;20214;-51
2023/07/05 09:14:20;;;;;;;2.13;1.30;;;;;;;35.16;45.82;95060.22;5091735;28;20255;-51
2023/07/05 09:16:55;;;;;;;0.80;0.80;;;;;;;36.21;44.27;95054.50;5092148;28;20264;-51
2023/07/05 09:19:38;;;;;;;0.50;0.50;;;;;;;35.72;43.87;95050.44;5092174;28;20208;-52
2023/07/05 09:22:11;;;;;;;1.17;0.57;;;;;;;36.01;44.58;95050.38;5092252;28;20194;-52
2023/07/05 09:24:41;;;;;;;0.70;0.57;;;;;;;34.49;46.87;95057.09;5092440;28;20212;-52
2023/07/05 09:27:16;;;;;;;0.63;0.60;;;;;;;34.05;46.90;95046.72;5091947;28;20197;-52
2023/07/05 09:29:50;;;;;;;0.97;0.97;;;;;;;33.95;46.50;95048.50;5092058;28;20193;-51
2023/07/05 09:32:20;;;;;;;0.73;0.73;;;;;;;34.95;44.12;95053.25;5092115;28;20213;-60
2023/07/05 09:34:56;;;;;;;1.17;1.10;;;;;;;34.89;42.76;95041.97;5092242;28;20865;-61
2023/07/05 09:37:27;;;;;;;1.70;1.60;;;;;;;34.22;45.38;95045.56;5091761;28;20649;-61
2023/07/05 09:40:15;;;;;;;0.60;0.50;;;;;;;34.65;46.57;95045.34;5092127;28;20442;-61
2023/07/05 09:42:49;;;;;;;1.03;1.03;;;;;;;34.75;44.57;95039.59;5092298;28;20316;-61
2023/07/05 09:45:18;;;;;;;2.67;2.40;;;;;;;34.26;45.67;95032.47;5091209;28;20439;-60
2023/07/05 09:47:50;;;;;;;2.10;0.90;;;;;;;34.01;48.20;95029.50;5091888;28;20190;-60
2023/07/05 09:50:22;;;;;;;1.00;1.00;;;;;;;33.68;49.27;95031.38;5091274;28;20439;-60
2023/07/05 09:52:53;;;;;;;2.40;2.30;;;;;;;33.98;49.52;95031.13;5092034;28;20258;-60
2023/07/05 09:55:21;;;;;;;1.83;1.57;;;;;;;33.97;49.36;95039.81;5091239;28;20281;-60
2023/07/05 09:57:50;;;;;;;1.63;1.47;;;;;;;34.19;45.23;95052.69;5091485;28;20209;-60
2023/07/05 10:00:26;;;;;;;1.13;1.00;;;;;;;34.24;40.47;95048.66;5091542;28;20197;-60
2023/07/05 10:03:01;;;;;;;1.07;0.43;;;;;;;34.57;40.51;95043.97;5091528;28;20193;-61
2023/07/05 10:05:31;;;;;;;0.77;0.77;;;;;;;34.35;41.31;95052.72;5091982;28;20229;-60
2023/07/05 10:08:04;;;;;;;10.23;1.03;;;;;;;33.84;40.08;95023.19;5091312;28;20285;-60
2023/07/05 10:10:36;;;;;;;0.40;0.30;;;;;;;33.64;40.56;95045.22;5091575;28;20213;-60
2023/07/05 10:13:20;;;;;;;0.63;0.50;;;;;;;31.98;41.35;95050.72;5087252;28;20198;-60
2023/07/05 10:15:52;;;;;;;0.93;0.93;;;;;;;30.67;42.19;95048.59;5085335;28;20194;-60
2023/07/05 10:18:26;;;;;;;1.07;0.77;;;;;;;30.68;43.80;95049.38;5091619;28;20430;-59
2023/07/05 10:20:59;;;;;;;0.73;0.40;;;;;;;30.46;44.99;95048.75;5091518;28;20522;-65
2023/07/05 10:23:30;;;;;;;1.00;1.00;;;;;;;30.39;43.65;95058.97;5091570;28;20442;-66
2023/07/05 10:26:02;;;;;;;0.63;0.50;;;;;;;30.92;43.99;95042.91;5086501;28;20432;-65
2023/07/05 10:28:32;;;;;;;0.97;0.67;;;;;;;31.57;44.23;95065.72;5083400;28;20510;-65
2023/07/05 10:31:03;;;;;;;2.33;0.40;;;;;;;31.96;43.10;95063.25;5091474;28;20468;-64
2023/07/05 10:33:35;;;;;;;0.40;0.40;;;;;;;32.61;43.19;95070.97;5091469;28;20435;-63
2023/07/05 10:36:13;;;;;;;0.40;0.30;;;;;;;32.95;42.52;95059.03;5091312;28;20963;-66
2023/07/05 10:38:48;;;;;;;0.40;0.40;;;;;;;33.15;42.98;95057.91;5077699;28;20444;-65
2023/07/05 10:41:25;;;;;;;0.70;0.50;;;;;;;32.45;43.32;95076.28;5091328;28;20443;-66
2023/07/05 10:44:02;;;;;;;0.40;0.30;;;;;;;31.48;44.06;95016.09;5091359;28;20513;-66
2023/07/05 10:46:32;;;;;;;0.60;0.47;;;;;;;31.63;42.23;95095.00;5091587;28;20443;-66
2023/07/05 10:49:05;;;;;;;0.40;0.30;;;;;;;31.92;45.20;95087.19;5091297;28;20485;-67
2023/07/05 10:51:40;;;;;;;0.40;0.40;;;;;;;31.40;43.69;95095.59;5090746;28;20497;-68
2023/07/05 10:54:16;;;;;;;0.73;0.73;;;;;;;31.37;45.32;95096.41;5091258;28;20435;-69
2023/07/05 10:56:46;;;;;;;0.90;0.70;;;;;;;31.05;43.91;95104.19;5090521;28;20859;-72
2023/07/05 10:59:25;;;;;;;0.40;0.37;;;;;;;31.31;45.78;95108.22;5091417;28;20478;-61
2023/07/05 11:02:01;;;;;;;1.07;0.40;;;;;;;31.09;43.88;95110.41;5092287;28;20436;-54
2023/07/05 11:04:31;;;;;;;0.50;0.50;;;;;;;31.12;47.07;95104.09;5094584;28;21016;-54
2023/07/05 11:07:10;;;;;;;0.53;0.53;;;;;;;31.18;46.96;95101.72;5094854;28;20928;-54
2023/07/05 11:09:40;;;;;;;0.50;0.37;;;;;;;31.14;45.55;95099.03;5094566;28;20428;-54
2023/07/05 11:12:17;;;;;;;0.47;0.47;;;;;;;31.44;45.63;95106.53;5094994;28;20847;-53
2023/07/05 11:14:46;;;;;;;0.47;0.47;;;;;;;31.25;44.37;95085.97;5094087;28;20442;-54
2023/07/05 11:17:26;;;;;;;0.40;0.40;;;;;;;31.20;46.94;95064.53;5094359;28;20462;-52
2023/07/05 11:19:54;;;;;;;0.70;0.50;;;;;;;31.28;45.68;95082.44;5094671;28;20526;-53
2023/07/05 11:22:43;;;;;;;0.40;0.40;;;;;;;31.94;46.95;95087.56;5094539;28;20492;-54
2023/07/05 11:25:13;;;;;;;0.40;0.40;;;;;;;32.18;46.28;95078.25;5094889;28;20866;-53
2023/07/05 11:27:50;;;;;;;0.40;0.40;;;;;;;31.68;46.12;95083.56;5094375;28;20436;-53
2023/07/05 11:30:40;;;;;;;0.60;0.60;;;;;;;30.94;45.06;95048.75;5094151;28;20439;-55
2023/07/05 11:33:21;;;;;;;0.57;0.57;;;;;;;31.53;47.37;95087.66;5088059;28;20483;-54
2023/07/05 11:35:52;;;;;;;0.40;0.30;;;;;;;31.29;48.89;95084.00;5094079;28;20470;-54
2023/07/05 11:39:06;;;;;;;0.40;0.40;;;;;;;31.20;48.05;95085.66;5094020;28;20475;-54
2023/07/05 11:41:40;;;;;;;0.50;0.50;;;;;;;31.57;44.35;95052.03;5080772;28;20443;-54
2023/07/05 11:44:28;;;;;;;0.70;0.40;;;;;;;31.59;44.45;95072.34;5069182;28;20450;-54
2023/07/05 11:46:57;;;;;;;0.60;0.40;;;;;;;31.21;46.71;95090.72;5093784;28;20440;-54
2023/07/05 11:49:34;;;;;;;0.60;0.53;;;;;;;30.81;46.96;95091.47;5094395;28;20435;-54
2023/07/05 11:52:12;;;;;;;7.20;1.00;;;;;;;29.78;49.09;95110.44;5093853;28;20570;-54